Keesler Air Force Base Biloxi US
ICAO: KBIX
IATA: BIX
Category: Medium
Scheduled Services: No

Elevation: 33 ft
TransAlt. 18000 ft.

Airport Communications:
GULFPORT APP/DEP:124.6
ATIS:25.6
CLNC DEL:121.8
GND:121.8
AEROMEDICAL EVAC:23.66
PMSV METRO:34.46
403 WG AFRC COMD:25.28
PTD:37.22
TWR:120.75

KBIX Zoom In..

Runways:

(A) RW 03 length 7630 ft width 150 ft
---- / hdg 34

(B) RW 21 length 7630 ft width 150 ft
ILS 109.70 / hdg 214

Location; KBIX
Day. 21 / Time. 23.56 Zulu
* Altimeter: 30.10
* Temperature: 16° c. 60.8°f.
* Wind from: 110° Speed 08 kn.
Dewpoint: 12° c.
Visibility: 10 Statute Miles.
Clouds: Clear (automated report).

KBIX 212356Z AUTO 11008KT 10SM CLR 16/12 A3010 RMK AO2 SLP196 T01610121 10211 20161 55007


Wind From 110°
Speed 08 kn.

jpsM music video
CHECK IT OUT

jpsM - It Moves..

 
jpsmedia.com for Web Design  worldairports.se 2018   terms of use